Lincoln Park, Michigan
Current Conditions -  °F | °C
As of 5:53 AM on Sunday 23 Nov 2014 (Local Time) from KDTW Reporting Station
Overcast Overcast  
Wind Chill:   Ceiling: 3000
Heat Index:   Visibility: 9mi
Dew Point:   Wind: 12mph
Humidity: 93%   Direction: 170°S
Pressure: 29.95"   Gusts: NA
Location:  42.25°N, 83.18°W
Report Text: KDTW 231053Z 17010KT 9SM BKN030 OVC075 07/06 A2995 RMK AO2 RAE24 SLP144 P0001 T00720061 $
Loading
Personal Weather Stations






























Interactive Weather Map New forecast layout! Learn more

10-Day Weather Forecast

Advertisements
Track Severe Weather on mobile